Time;durP1;ratioP1;P1;durP2;ratioP2;P2;SDS_P1;SDS_P2;PMS_P1;PMS_P2;Temp;Humidity;BMP_temperature;BMP_pressure;BME280_temperature;BME280_humidity;BME280_pressure;Samples;Min_cycle;Max_cycle;Signal;HPM_P1;HPM_P2
2022/01/11 00:02:06;;;;;;;56.88;21.27;;;;;;;1.25;100.00;102933.28;5199878;28;20151;-73
2022/01/11 00:04:37;;;;;;;55.38;22.92;;;;;;;1.26;100.00;102953.09;5197762;28;20014;-73
2022/01/11 00:07:13;;;;;;;49.95;21.90;;;;;;;1.28;100.00;102953.91;5201070;28;20056;-73
2022/01/11 00:09:45;;;;;;;43.95;21.45;;;;;;;1.27;100.00;102971.13;5186220;28;20030;-72
2022/01/11 00:12:17;;;;;;;44.03;22.35;;;;;;;1.34;100.00;102971.94;5199861;28;20034;-73
2022/01/11 00:14:49;;;;;;;65.50;23.75;;;;;;;1.34;100.00;102979.69;5196993;28;20014;-73
2022/01/11 00:17:20;;;;;;;71.45;26.63;;;;;;;1.30;100.00;102965.09;5197925;28;20034;-73
2022/01/11 00:19:51;;;;;;;59.05;24.80;;;;;;;1.37;100.00;102977.91;5201313;28;20025;-72
2022/01/11 00:22:29;;;;;;;49.38;24.42;;;;;;;1.40;100.00;102966.66;5202427;28;20088;-73
2022/01/11 00:25:01;;;;;;;62.08;23.38;;;;;;;1.40;100.00;102964.09;5200471;28;20033;-73
2022/01/11 00:27:32;;;;;;;46.47;22.88;;;;;;;1.41;100.00;102961.50;5201671;28;20030;-73
2022/01/11 00:30:07;;;;;;;53.58;23.38;;;;;;;1.44;100.00;102968.38;5202377;28;20490;-73
2022/01/11 00:32:44;;;;;;;46.55;23.65;;;;;;;1.47;100.00;102960.56;5200500;28;20030;-73
2022/01/11 00:35:17;;;;;;;47.63;24.02;;;;;;;1.51;100.00;102966.53;5197400;28;20026;-73
2022/01/11 00:37:49;;;;;;;44.90;24.33;;;;;;;1.55;100.00;102969.06;5199898;28;20166;-73
2022/01/11 00:40:21;;;;;;;44.25;24.10;;;;;;;1.53;100.00;102964.81;5198971;28;20026;-73
2022/01/11 00:42:52;;;;;;;58.80;24.88;;;;;;;1.48;100.00;102967.47;5200654;28;20026;-73
2022/01/11 00:45:24;;;;;;;58.63;25.63;;;;;;;1.50;100.00;102965.69;5202920;28;20077;-73
2022/01/11 00:47:55;;;;;;;45.08;25.30;;;;;;;1.46;100.00;102958.84;5200222;28;20371;-73
2022/01/11 00:50:26;;;;;;;45.50;25.45;;;;;;;1.53;100.00;102955.31;5181974;28;20046;-73
2022/01/11 00:52:58;;;;;;;45.50;23.98;;;;;;;1.53;100.00;102947.56;5194719;28;20018;-73
2022/01/11 00:55:30;;;;;;;47.67;26.15;;;;;;;1.56;100.00;102949.28;5183180;28;20026;-72
2022/01/11 00:58:02;;;;;;;48.08;26.33;;;;;;;1.41;100.00;102934.81;5199573;28;20034;-73
2022/01/11 01:00:36;;;;;;;48.30;25.80;;;;;;;1.51;100.00;102951.03;5195796;28;20037;-73
2022/01/11 01:03:07;;;;;;;;;;;;;;;1.95;100.00;102947.84;5204975;28;20022;-73
2022/01/11 01:05:40;;;;;;;50.05;25.25;;;;;;;1.54;100.00;102946.69;5200381;28;20397;-73
2022/01/11 01:08:12;;;;;;;50.88;25.80;;;;;;;1.47;100.00;102957.97;5195618;28;20034;-72
2022/01/11 01:10:47;;;;;;;48.60;25.38;;;;;;;1.46;100.00;102961.44;5194088;28;20034;-73
2022/01/11 01:13:21;;;;;;;43.42;24.58;;;;;;;1.50;100.00;102967.44;5200476;28;20094;-72
2022/01/11 01:15:54;;;;;;;47.63;25.38;;;;;;;1.53;100.00;102969.97;5197441;28;20064;-72
2022/01/11 01:18:29;;;;;;;43.40;25.20;;;;;;;1.57;100.00;102971.63;5198547;28;20089;-73
2022/01/11 01:21:00;;;;;;;50.95;27.70;;;;;;;1.56;100.00;102970.78;5202439;28;20030;-73
2022/01/11 01:23:32;;;;;;;46.92;25.40;;;;;;;1.57;100.00;102962.16;5203974;28;20028;-72
2022/01/11 01:26:04;;;;;;;49.03;26.55;;;;;;;1.57;100.00;102972.50;5200962;28;20506;-72
2022/01/11 01:28:35;;;;;;;53.40;28.30;;;;;;;1.59;100.00;102959.53;5204694;28;20034;-72
2022/01/11 01:31:06;;;;;;;51.25;28.02;;;;;;;1.50;100.00;102949.34;5202498;28;20026;-72
2022/01/11 01:33:38;;;;;;;53.78;27.27;;;;;;;1.52;100.00;102963.97;5203284;28;20037;-73
2022/01/11 01:36:11;;;;;;;55.08;27.83;;;;;;;1.44;100.00;102963.22;5198645;28;20023;-72
2022/01/11 01:38:43;;;;;;;51.55;28.58;;;;;;;1.49;100.00;102966.56;5201225;28;20065;-72
2022/01/11 01:41:17;;;;;;;55.53;29.23;;;;;;;1.45;100.00;102970.06;5205329;28;20113;-73
2022/01/11 01:43:53;;;;;;;51.97;28.15;;;;;;;1.45;100.00;102973.50;5205080;28;20526;-72
2022/01/11 01:46:24;;;;;;;54.10;27.77;;;;;;;1.38;100.00;102965.84;5208207;28;20026;-73
2022/01/11 01:48:59;;;;;;;53.13;28.10;;;;;;;1.35;100.00;102958.13;5205736;28;20042;-73
2022/01/11 01:51:30;;;;;;;53.13;27.90;;;;;;;1.36;100.00;102962.41;5201161;28;20236;-72
2022/01/11 01:54:02;;;;;;;54.22;27.73;;;;;;;1.45;100.00;102967.50;5201753;28;20034;-72
2022/01/11 01:56:33;;;;;;;48.00;25.63;;;;;;;1.49;100.00;102965.72;5200480;28;20395;-72
2022/01/11 01:59:05;;;;;;;54.13;26.85;;;;;;;1.52;100.00;102968.28;5200388;28;20418;-72
2022/01/11 02:01:44;;;;;;;49.25;26.27;;;;;;;1.45;100.00;102973.50;5204040;28;20040;-73
2022/01/11 02:04:18;;;;;;;53.15;28.05;;;;;;;1.50;100.00;102980.34;5202023;28;20476;-73
2022/01/11 02:06:50;;;;;;;49.08;26.67;;;;;;;1.38;100.00;102973.59;5200657;28;20025;-72
2022/01/11 02:09:21;;;;;;;49.63;27.25;;;;;;;1.39;100.00;102983.03;5200109;28;20022;-72
2022/01/11 02:11:53;;;;;;;47.13;25.58;;;;;;;1.44;100.00;102992.47;5201124;28;20113;-72
2022/01/11 02:14:26;;;;;;;50.08;25.30;;;;;;;1.44;100.00;102989.88;5199454;28;20088;-72
2022/01/11 02:17:00;;;;;;;47.35;25.35;;;;;;;1.40;100.00;102987.34;5201922;28;20045;-72
2022/01/11 02:19:31;;;;;;;52.00;26.63;;;;;;;1.37;100.00;102988.25;5202405;28;20029;-72
2022/01/11 02:22:03;;;;;;;45.70;23.92;;;;;;;1.42;100.00;102998.50;5201477;28;20492;-72
2022/01/11 02:24:34;;;;;;;47.13;25.08;;;;;;;1.43;100.00;103010.53;5207847;28;20212;-73
2022/01/11 02:27:06;;;;;;;45.05;24.85;;;;;;;1.43;100.00;103006.22;5205820;28;20018;-73
2022/01/11 02:29:37;;;;;;;44.67;24.20;;;;;;;1.45;100.00;103013.97;5199444;28;20080;-72
2022/01/11 02:32:09;;;;;;;44.47;24.65;;;;;;;1.46;100.00;103018.25;5201807;28;20030;-72
2022/01/11 02:34:40;;;;;;;51.25;26.05;;;;;;;1.40;100.00;103010.56;5200935;28;20022;-72
2022/01/11 02:37:12;;;;;;;47.13;25.25;;;;;;;1.35;100.00;102994.28;5199170;28;20088;-73
2022/01/11 02:39:45;;;;;;;45.78;24.45;;;;;;;1.38;100.00;103009.75;5195810;28;20050;-72
2022/01/11 02:42:16;;;;;;;43.90;25.15;;;;;;;1.41;100.00;103009.72;5198360;28;20045;-73
2022/01/11 02:44:47;;;;;;;44.00;23.77;;;;;;;1.41;100.00;103022.63;5205714;28;20021;-73
2022/01/11 02:47:19;;;;;;;43.55;25.55;;;;;;;1.36;100.00;103009.75;5198845;28;20022;-73
2022/01/11 02:49:51;;;;;;;46.13;24.95;;;;;;;1.42;100.00;103029.50;5204743;28;20064;-73
2022/01/11 02:52:22;;;;;;;46.38;25.33;;;;;;;1.39;100.00;103029.53;5199213;28;20052;-73
2022/01/11 02:54:54;;;;;;;44.03;24.05;;;;;;;1.38;100.00;103028.69;5198498;28;20106;-72
2022/01/11 02:57:25;;;;;;;50.10;26.30;;;;;;;1.34;100.00;103024.44;5202883;28;20042;-73
2022/01/11 02:59:56;;;;;;;43.55;23.75;;;;;;;1.40;100.00;103036.41;5204988;28;20026;-72
2022/01/11 03:02:27;;;;;;;46.58;24.73;;;;;;;1.39;100.00;103039.88;5199046;28;20486;-73
2022/01/11 03:04:59;;;;;;;47.50;26.15;;;;;;;1.32;100.00;103038.22;5200156;28;20375;-73
2022/01/11 03:07:30;;;;;;;48.92;25.48;;;;;;;1.31;100.00;103027.03;5200547;28;20443;-73
2022/01/11 03:10:14;;;;;;;45.88;26.73;;;;;;;1.38;100.00;103038.16;5205442;28;20044;-72
2022/01/11 03:12:45;;;;;;;44.78;24.55;;;;;;;1.26;100.00;103027.97;5203543;28;20022;-73
2022/01/11 03:15:17;;;;;;;46.53;25.98;;;;;;;1.35;100.00;103039.03;5202524;28;20057;-73
2022/01/11 03:17:48;;;;;;;48.17;25.17;;;;;;;1.35;100.00;103035.59;5201653;28;20030;-73
2022/01/11 03:20:19;;;;;;;48.88;26.45;;;;;;;1.31;100.00;103037.38;5200249;28;20034;-73
2022/01/11 03:22:51;;;;;;;49.85;27.13;;;;;;;1.31;100.00;103032.22;5200158;28;20120;-73
2022/01/11 03:25:23;;;;;;;45.85;24.63;;;;;;;1.31;100.00;103032.22;5203947;28;20025;-72
2022/01/11 03:27:55;;;;;;;41.23;22.70;;;;;;;1.27;100.00;103030.53;5205349;28;20144;-72
2022/01/11 03:30:26;;;;;;;45.92;23.63;;;;;;;1.21;100.00;103033.16;5199260;28;20041;-73
2022/01/11 03:32:58;;;;;;;49.20;24.98;;;;;;;1.19;100.00;103025.44;5204939;28;20156;-73
2022/01/11 03:35:30;;;;;;;42.30;23.80;;;;;;;1.19;100.00;103028.03;5205060;28;20026;-73
2022/01/11 03:38:04;;;;;;;39.97;23.63;;;;;;;1.25;100.00;103021.09;5199013;28;20480;-72
2022/01/11 03:40:36;;;;;;;45.30;24.77;;;;;;;1.21;100.00;103028.88;5181628;28;20124;-73
2022/01/11 03:43:08;;;;;;;44.45;24.13;;;;;;;1.13;100.00;103025.50;5200831;28;20560;-72
2022/01/11 03:45:39;;;;;;;48.80;25.08;;;;;;;1.17;100.00;103027.19;5198115;28;20622;-73
2022/01/11 03:48:13;;;;;;;45.65;24.55;;;;;;;1.21;100.00;103023.72;5198639;28;20042;-72
2022/01/11 03:50:51;;;;;;;44.67;25.73;;;;;;;1.13;100.00;103011.75;5196936;28;20047;-72
2022/01/11 03:53:32;;;;;;;44.63;24.30;;;;;;;1.22;100.00;103027.16;5197540;28;20029;-73
2022/01/11 03:56:21;;;;;;;41.83;24.00;;;;;;;1.17;100.00;103029.75;5202755;28;20018;-73
2022/01/11 03:58:53;;;;;;;43.88;23.63;;;;;;;1.08;100.00;103029.00;5196955;28;20030;-72
2022/01/11 04:01:25;;;;;;;43.00;24.13;;;;;;;1.11;100.00;103018.66;5201255;28;20061;-72
2022/01/11 04:03:56;;;;;;;42.88;23.55;;;;;;;1.10;100.00;103022.09;5200727;28;20026;-72
2022/01/11 04:06:28;;;;;;;41.10;23.92;;;;;;;1.03;100.00;103020.47;5196920;28;20144;-73
2022/01/11 04:08:59;;;;;;;40.80;23.60;;;;;;;1.07;100.00;103029.91;5196555;28;20745;-72
2022/01/11 04:11:31;;;;;;;42.30;22.85;;;;;;;1.06;100.00;103033.31;5203934;28;20030;-72
2022/01/11 04:14:02;;;;;;;38.95;22.98;;;;;;;1.04;100.00;103032.50;5197553;28;20100;-72
2022/01/11 04:16:34;;;;;;;39.08;22.92;;;;;;;0.95;100.00;103034.31;5197629;28;20034;-72
2022/01/11 04:19:05;;;;;;;39.80;22.40;;;;;;;0.99;100.00;103044.59;5200385;28;20033;-72
2022/01/11 04:21:36;;;;;;;42.63;23.80;;;;;;;1.02;100.00;103044.56;5200250;28;20065;-72
2022/01/11 04:24:11;;;;;;;40.22;23.48;;;;;;;1.00;100.00;103042.00;5200786;28;20161;-72
2022/01/11 04:26:42;;;;;;;39.63;22.73;;;;;;;1.01;100.00;103035.97;5199198;28;20585;-72
2022/01/11 04:29:13;;;;;;;38.90;22.80;;;;;;;1.02;100.00;103040.25;5200493;28;20022;-72
2022/01/11 04:31:45;;;;;;;39.13;22.77;;;;;;;1.01;100.00;103035.97;5204082;28;20021;-72
2022/01/11 04:34:16;;;;;;;40.45;23.45;;;;;;;1.04;100.00;103045.41;5195097;28;20391;-72
2022/01/11 04:36:48;;;;;;;35.53;21.98;;;;;;;1.04;100.00;103060.91;5203382;28;20069;-72
2022/01/11 04:39:19;;;;;;;40.50;23.65;;;;;;;1.00;100.00;103062.66;5198643;28;20125;-72
2022/01/11 04:41:50;;;;;;;38.25;22.13;;;;;;;0.99;100.00;103058.38;5199483;28;20027;-72
2022/01/11 04:44:22;;;;;;;36.97;21.60;;;;;;;0.95;100.00;103043.78;5200084;28;20146;-72
2022/01/11 04:46:53;;;;;;;36.80;21.83;;;;;;;0.95;100.00;103060.13;5202522;28;20041;-72
2022/01/11 04:49:25;;;;;;;39.35;24.23;;;;;;;0.93;100.00;103054.09;5220153;23;20065;-72
2022/01/11 04:51:56;;;;;;;36.30;22.63;;;;;;;0.90;100.00;103055.84;5202292;28;20109;-72
2022/01/11 04:54:28;;;;;;;36.40;22.00;;;;;;;0.92;100.00;103059.28;5212196;28;20459;-72
2022/01/11 04:56:59;;;;;;;41.08;22.63;;;;;;;0.93;100.00;103056.69;5213245;28;20065;-72
2022/01/11 04:59:30;;;;;;;34.22;22.48;;;;;;;0.92;100.00;103054.13;5214182;28;20144;-72
2022/01/11 05:02:02;;;;;;;35.92;23.15;;;;;;;0.87;100.00;103048.13;5213865;28;20080;-72
2022/01/11 05:04:33;;;;;;;38.08;22.40;;;;;;;0.81;100.00;103037.88;5215313;28;20026;-72
2022/01/11 05:07:04;;;;;;;37.03;23.00;;;;;;;0.86;100.00;103049.00;5213657;28;20032;-72
2022/01/11 05:09:36;;;;;;;36.72;23.48;;;;;;;0.85;100.00;103036.97;5215344;28;20475;-72
2022/01/11 05:12:08;;;;;;;38.65;23.85;;;;;;;0.83;100.00;103046.44;5215076;28;20030;-72
2022/01/11 05:14:39;;;;;;;39.88;24.23;;;;;;;0.79;100.00;103049.91;5215259;28;20020;-72
2022/01/11 05:17:11;;;;;;;40.00;22.77;;;;;;;0.79;100.00;103052.50;5214012;28;20029;-73
2022/01/11 05:19:42;;;;;;;36.88;22.60;;;;;;;0.75;100.00;103041.34;5214906;28;20042;-72
2022/01/11 05:22:14;;;;;;;40.40;24.75;;;;;;;0.72;100.00;103041.41;5215172;28;20033;-72
2022/01/11 05:24:45;;;;;;;41.90;24.88;;;;;;;0.72;100.00;103042.25;5214478;28;20055;-72
2022/01/11 05:27:16;;;;;;;41.97;23.08;;;;;;;0.71;100.00;103037.94;5214703;28;20112;-72
2022/01/11 05:29:47;;;;;;;41.35;24.55;;;;;;;0.63;100.00;103026.84;5215387;28;20022;-72
2022/01/11 05:32:19;;;;;;;45.42;26.88;;;;;;;0.59;100.00;103030.31;5214100;28;20111;-72
2022/01/11 05:34:50;;;;;;;45.65;26.00;;;;;;;0.57;100.00;103024.31;5214101;28;20485;-72
2022/01/11 05:37:22;;;;;;;45.78;26.25;;;;;;;0.54;100.00;103034.66;5214464;28;20729;-72
2022/01/11 05:39:53;;;;;;;47.97;27.15;;;;;;;0.59;100.00;103040.63;5214368;28;20022;-72
2022/01/11 05:42:26;;;;;;;46.63;26.77;;;;;;;0.61;100.00;103043.22;5214810;28;20545;-72
2022/01/11 05:44:57;;;;;;;45.10;26.60;;;;;;;0.59;100.00;103040.63;5214106;28;20072;-72
2022/01/11 05:47:29;;;;;;;46.72;26.23;;;;;;;0.55;100.00;103044.09;5214328;28;20061;-72
2022/01/11 05:50:03;;;;;;;45.97;25.33;;;;;;;0.57;100.00;103044.97;5214569;28;20398;-72
2022/01/11 05:52:38;;;;;;;46.15;26.08;;;;;;;0.56;100.00;103043.22;5214097;28;20038;-72
2022/01/11 05:55:11;;;;;;;44.42;26.38;;;;;;;0.62;100.00;103044.91;5214724;28;20084;-72
2022/01/11 05:57:43;;;;;;;44.03;25.63;;;;;;;0.64;100.00;103046.59;5214138;28;20530;-72
2022/01/11 06:00:18;;;;;;;45.42;25.75;;;;;;;0.67;100.00;103058.63;5213744;28;20030;-72
2022/01/11 06:02:54;;;;;;;39.40;22.73;;;;;;;0.60;100.00;103046.63;5214823;28;20033;-72
2022/01/11 06:05:26;;;;;;;42.13;23.83;;;;;;;0.68;100.00;103070.66;5213701;28;20110;-72
2022/01/11 06:07:57;;;;;;;45.10;25.98;;;;;;;0.72;100.00;103078.38;5213723;28;20570;-72
2022/01/11 06:10:28;;;;;;;44.63;24.25;;;;;;;0.70;100.00;103085.25;5213437;28;20041;-72
2022/01/11 06:12:59;;;;;;;42.85;24.63;;;;;;;0.68;100.00;103081.84;5214843;28;20026;-72
2022/01/11 06:15:31;;;;;;;40.70;24.73;;;;;;;0.69;100.00;103087.84;5212626;28;20030;-72
2022/01/11 06:18:03;;;;;;;44.13;24.75;;;;;;;0.64;100.00;103089.59;5212041;28;20046;-72
2022/01/11 06:20:34;;;;;;;39.10;24.10;;;;;;;0.68;100.00;103088.69;5214007;28;20326;-74
2022/01/11 06:23:06;;;;;;;39.33;22.50;;;;;;;0.67;100.00;103095.59;5212136;28;20113;-74
2022/01/11 06:25:37;;;;;;;39.63;23.27;;;;;;;0.63;100.00;103096.47;5213649;28;20461;-73
2022/01/11 06:28:09;;;;;;;41.88;23.00;;;;;;;0.68;100.00;103110.22;5213475;28;20036;-73
2022/01/11 06:30:40;;;;;;;44.05;23.85;;;;;;;0.64;100.00;103102.50;5213390;28;20426;-73
2022/01/11 06:33:11;;;;;;;46.05;25.08;;;;;;;0.65;100.00;103102.50;5212982;28;20025;-73
2022/01/11 06:35:43;;;;;;;42.97;24.02;;;;;;;0.54;100.00;103086.25;5212881;28;20022;-73
2022/01/11 06:38:14;;;;;;;39.72;24.38;;;;;;;0.65;100.00;103105.06;5213137;28;20040;-72
2022/01/11 06:40:46;;;;;;;40.15;23.60;;;;;;;0.66;100.00;103108.50;5213521;28;20092;-72
2022/01/11 06:43:17;;;;;;;42.75;24.27;;;;;;;0.62;100.00;103118.00;5212710;28;20498;-73
2022/01/11 06:45:48;;;;;;;39.10;23.13;;;;;;;0.62;100.00;103112.84;5212996;28;20126;-72
2022/01/11 06:48:20;;;;;;;35.80;22.33;;;;;;;0.57;100.00;103109.44;5212816;28;20491;-73
2022/01/11 06:50:51;;;;;;;37.70;22.13;;;;;;;0.56;100.00;103109.44;5210807;28;20438;-75
2022/01/11 06:53:22;;;;;;;40.72;22.52;;;;;;;0.60;100.00;103121.44;5212926;28;20085;-73
2022/01/11 06:55:54;;;;;;;38.28;22.65;;;;;;;0.65;100.00;103122.28;5213427;28;20553;-73
2022/01/11 06:58:26;;;;;;;40.65;23.42;;;;;;;0.61;100.00;103113.72;5211952;28;20426;-73
2022/01/11 07:00:57;;;;;;;35.38;21.92;;;;;;;0.62;100.00;103111.97;5213428;28;20034;-72
2022/01/11 07:03:29;;;;;;;34.03;21.08;;;;;;;0.64;100.00;103115.38;5212452;28;20122;-73
2022/01/11 07:06:00;;;;;;;36.10;20.92;;;;;;;0.65;100.00;103120.56;5213146;28;20018;-73
2022/01/11 07:08:31;;;;;;;35.03;21.75;;;;;;;0.56;100.00;103119.75;5213006;28;20033;-73
2022/01/11 07:11:03;;;;;;;37.50;22.85;;;;;;;0.53;100.00;103112.91;5212868;28;20066;-73
2022/01/11 07:13:34;;;;;;;38.15;23.13;;;;;;;0.52;100.00;103126.66;5213144;28;20029;-72
2022/01/11 07:16:05;;;;;;;34.65;22.27;;;;;;;0.44;100.00;103131.84;5212434;28;20041;-72
2022/01/11 07:18:37;;;;;;;40.38;23.58;;;;;;;0.51;100.00;103135.25;5213583;28;20088;-72
2022/01/11 07:21:08;;;;;;;36.85;22.42;;;;;;;0.46;100.00;103137.88;5213340;28;20065;-73
2022/01/11 07:23:39;;;;;;;37.80;22.35;;;;;;;0.50;100.00;103143.88;5212659;28;20285;-72
2022/01/11 07:26:11;;;;;;;36.88;22.08;;;;;;;0.48;100.00;103143.00;5213088;28;20026;-72
2022/01/11 07:28:42;;;;;;;36.13;22.75;;;;;;;0.45;100.00;103143.88;5201950;28;20453;-72
2022/01/11 07:31:14;;;;;;;37.53;22.73;;;;;;;0.46;100.00;103153.34;5194706;28;20034;-72
2022/01/11 07:33:45;;;;;;;36.33;23.27;;;;;;;0.47;100.00;103155.06;5212183;28;20037;-71
2022/01/11 07:36:16;;;;;;;36.47;22.67;;;;;;;0.43;100.00;103149.94;5212616;28;20033;-72
2022/01/11 07:38:48;;;;;;;36.60;22.02;;;;;;;0.48;100.00;103158.47;5202221;28;20030;-74
2022/01/11 07:41:19;;;;;;;38.78;23.08;;;;;;;0.43;100.00;103157.66;5211860;28;20018;-74
2022/01/11 07:43:51;;;;;;;34.65;20.27;;;;;;;0.48;100.00;103166.22;5212303;28;20022;-74
2022/01/11 07:46:23;;;;;;;34.13;22.58;;;;;;;0.50;100.00;103163.66;5211043;28;20025;-74
2022/01/11 07:48:55;;;;;;;33.78;20.75;;;;;;;0.53;100.00;103173.94;5211710;28;20403;-74
2022/01/11 07:51:26;;;;;;;35.30;22.38;;;;;;;0.48;100.00;103167.06;5212113;28;20711;-74
2022/01/11 07:53:58;;;;;;;36.00;21.35;;;;;;;0.44;100.00;103167.09;5210623;28;20409;-75
2022/01/11 07:56:29;;;;;;;39.13;22.30;;;;;;;0.50;100.00;103163.66;5211979;28;20042;-73
2022/01/11 07:59:00;;;;;;;35.85;22.13;;;;;;;0.51;100.00;103167.94;5211397;28;20104;-72
2022/01/11 08:01:32;;;;;;;31.23;20.77;;;;;;;0.54;100.00;103171.34;5210549;28;20398;-72
2022/01/11 08:04:04;;;;;;;37.83;21.98;;;;;;;0.57;100.00;103171.34;5193521;28;20080;-71
2022/01/11 08:06:36;;;;;;;34.22;21.30;;;;;;;0.61;100.00;103172.19;5211896;28;20034;-72
2022/01/11 08:09:07;;;;;;;31.85;20.10;;;;;;;0.63;100.00;103171.28;5210780;28;20024;-72
2022/01/11 08:11:39;;;;;;;33.97;20.58;;;;;;;0.66;100.00;103166.13;5211942;28;20020;-72
2022/01/11 08:14:11;;;;;;;36.10;21.42;;;;;;;0.64;100.00;103178.16;5211775;28;20025;-71
2022/01/11 08:16:42;;;;;;;40.90;21.58;;;;;;;0.61;100.00;103161.88;5210073;28;20040;-71
2022/01/11 08:19:14;;;;;;;30.67;19.65;;;;;;;0.68;100.00;103169.56;5211394;28;20029;-72
2022/01/11 08:21:47;;;;;;;31.25;19.55;;;;;;;0.72;100.00;103175.56;5211463;28;20187;-72
2022/01/11 08:24:21;;;;;;;34.70;21.08;;;;;;;0.79;100.00;103184.09;5210819;28;20033;-72
2022/01/11 08:26:53;;;;;;;31.25;19.75;;;;;;;0.81;100.00;103177.22;5209671;28;20511;-73
2022/01/11 08:29:25;;;;;;;32.03;20.77;;;;;;;0.90;100.00;103177.13;5209538;28;20638;-72
2022/01/11 08:31:56;;;;;;;30.98;19.42;;;;;;;0.92;100.00;103172.84;5211591;28;20026;-72
2022/01/11 08:34:27;;;;;;;30.75;19.33;;;;;;;0.99;100.00;103178.81;5193236;28;20037;-73
2022/01/11 08:36:59;;;;;;;31.95;19.17;;;;;;;0.97;100.00;103165.91;5211113;28;20109;-73
2022/01/11 08:39:31;;;;;;;32.13;20.00;;;;;;;1.07;100.00;103183.03;5208433;28;20036;-73
2022/01/11 08:42:03;;;;;;;31.92;19.08;;;;;;;1.10;100.00;103177.88;5202088;28;20749;-72
2022/01/11 08:44:34;;;;;;;27.05;17.92;;;;;;;1.17;100.00;103179.50;5210073;28;20018;-72
2022/01/11 08:47:06;;;;;;;27.75;18.05;;;;;;;1.23;100.00;103177.75;5210398;28;20033;-73
2022/01/11 08:49:38;;;;;;;30.48;17.52;;;;;;;1.11;100.00;103161.50;5192727;28;20462;-73
2022/01/11 08:52:10;;;;;;;30.80;18.65;;;;;;;1.25;100.00;103176.00;5210147;28;20030;-73
2022/01/11 08:54:41;;;;;;;34.63;18.42;;;;;;;1.34;100.00;103188.84;5210671;28;20018;-73
2022/01/11 08:57:18;;;;;;;29.08;18.40;;;;;;;1.39;100.00;103189.66;5210800;28;20033;-73
2022/01/11 08:59:51;;;;;;;26.90;17.65;;;;;;;1.37;100.00;103187.09;5194773;28;20046;-72
2022/01/11 09:02:22;;;;;;;27.60;17.83;;;;;;;1.44;100.00;103181.03;5209298;28;20032;-72
2022/01/11 09:04:53;;;;;;;24.00;17.15;;;;;;;1.44;100.00;103195.66;5210961;28;20022;-72
2022/01/11 09:07:25;;;;;;;30.38;18.60;;;;;;;1.50;100.00;103198.19;5193111;28;20465;-72
2022/01/11 09:09:56;;;;;;;28.00;18.45;;;;;;;1.55;100.00;103201.56;5210401;28;20376;-73
2022/01/11 09:12:27;;;;;;;26.52;17.33;;;;;;;1.58;100.00;103201.53;5211185;28;20053;-73
2022/01/11 09:15:00;;;;;;;29.10;17.88;;;;;;;1.60;100.00;103196.38;5211450;28;20048;-73
2022/01/11 09:17:31;;;;;;;26.95;17.02;;;;;;;1.64;100.00;103192.91;5210455;28;20029;-72
2022/01/11 09:20:05;;;;;;;25.75;17.25;;;;;;;1.66;100.00;103194.56;5210732;28;20371;-73
2022/01/11 09:22:37;;;;;;;29.08;17.88;;;;;;;1.70;100.00;103192.81;5211432;28;20407;-73
2022/01/11 09:25:11;;;;;;;26.75;17.85;;;;;;;1.78;100.00;103203.06;5210418;28;20257;-73
2022/01/11 09:27:43;;;;;;;29.30;17.25;;;;;;;1.83;100.00;103202.16;5210485;28;20117;-74
2022/01/11 09:30:15;;;;;;;24.35;16.38;;;;;;;1.83;100.00;103202.16;5192761;28;20065;-73
2022/01/11 09:32:46;;;;;;;26.40;17.65;;;;;;;1.96;100.00;103202.88;5210364;28;20043;-72
2022/01/11 09:35:18;;;;;;;27.00;17.48;;;;;;;1.94;100.00;103195.16;5209428;28;20025;-73
2022/01/11 09:37:49;;;;;;;25.08;15.98;;;;;;;2.03;100.00;103201.94;5211842;28;20467;-73
2022/01/11 09:40:24;;;;;;;27.77;16.52;;;;;;;2.15;100.00;103206.97;5213789;28;20033;-73
2022/01/11 09:42:55;;;;;;;26.67;16.45;;;;;;;2.09;100.00;103207.06;5213240;28;20034;-74
2022/01/11 09:45:27;;;;;;;27.10;15.80;;;;;;;2.23;100.00;103216.38;5212908;28;20022;-72
2022/01/11 09:47:59;;;;;;;24.88;16.25;;;;;;;2.27;100.00;103216.31;5214767;28;20379;-73
2022/01/11 09:50:30;;;;;;;23.63;15.25;;;;;;;2.30;100.00;103211.09;5214158;28;20034;-72
2022/01/11 09:53:02;;;;;;;24.55;16.25;;;;;;;2.40;100.00;103219.63;5213981;28;20069;-74
2022/01/11 09:55:34;;;;;;;25.77;16.27;;;;;;;2.43;100.00;103206.66;5213633;28;20030;-74
2022/01/11 09:58:05;;;;;;;23.15;15.77;;;;;;;2.46;100.00;103227.28;5213059;28;20033;-74
2022/01/11 10:00:39;;;;;;;21.90;15.60;;;;;;;2.52;100.00;103224.63;5212653;28;20029;-74
2022/01/11 10:03:11;;;;;;;22.35;14.30;;;;;;;2.55;100.00;103226.34;5211164;28;20301;-74
2022/01/11 10:05:42;;;;;;;23.20;15.48;;;;;;;2.62;100.00;103223.66;5212463;28;20030;-74
2022/01/11 10:08:28;;;;;;;21.88;14.27;;;;;;;2.81;100.00;103226.00;5213399;28;20072;-74
2022/01/11 10:11:00;;;;;;;23.08;15.98;;;;;;;2.75;100.00;103226.06;5212140;28;20095;-74
2022/01/11 10:13:40;;;;;;;22.63;15.70;;;;;;;2.83;100.00;103226.81;5212233;28;20018;-73
2022/01/11 10:16:27;;;;;;;23.70;13.93;;;;;;;2.98;100.00;103221.41;5211391;28;20026;-72
2022/01/11 10:18:59;;;;;;;20.95;13.82;;;;;;;2.87;100.00;103224.16;5212045;28;20037;-73
2022/01/11 10:21:35;;;;;;;28.20;14.70;;;;;;;2.92;100.00;103230.13;5212677;28;20034;-72
2022/01/11 10:24:32;;;;;;;26.40;14.80;;;;;;;3.07;100.00;103233.34;5213201;28;20049;-73
2022/01/11 10:27:17;;;;;;;20.20;13.48;;;;;;;3.13;100.00;103225.50;5212537;28;20446;-73
2022/01/11 10:29:58;;;;;;;21.42;14.50;;;;;;;3.12;100.00;103216.88;5212650;28;20108;-73
2022/01/11 10:32:35;;;;;;;22.20;14.27;;;;;;;3.11;100.00;103219.50;5212968;28;20425;-73
2022/01/11 10:35:14;;;;;;;19.67;13.10;;;;;;;3.21;100.00;103217.59;5212319;28;20095;-73
2022/01/11 10:37:51;;;;;;;22.35;14.13;;;;;;;3.27;100.00;103225.28;5212188;28;20038;-73
2022/01/11 10:40:32;;;;;;;21.85;14.43;;;;;;;3.23;100.00;103221.91;5211103;28;20083;-73
2022/01/11 10:43:05;;;;;;;27.02;13.77;;;;;;;3.27;100.00;103222.72;5211452;28;20025;-73
2022/01/11 10:45:43;;;;;;;19.50;13.32;;;;;;;3.35;100.00;103218.25;5212352;28;20046;-74
2022/01/11 10:48:17;;;;;;;23.42;12.50;;;;;;;3.38;100.00;103219.06;5213063;28;20046;-75
2022/01/11 10:50:59;;;;;;;20.05;12.65;;;;;;;3.45;100.00;103219.81;5212566;28;21171;-75
2022/01/11 10:53:39;;;;;;;20.15;12.23;;;;;;;3.52;100.00;103236.94;5194147;28;20421;-74
2022/01/11 10:56:11;;;;;;;20.13;13.10;;;;;;;3.53;100.00;103235.22;5212088;28;20080;-74
2022/01/11 10:59:02;;;;;;;21.50;12.43;;;;;;;3.55;100.00;103233.47;5195613;28;21042;-73
2022/01/11 11:01:35;;;;;;;21.88;12.80;;;;;;;3.63;100.00;103232.44;5212173;28;20018;-74
2022/01/11 11:04:32;;;;;;;18.50;12.33;;;;;;;3.86;100.00;103231.16;5195380;28;20044;-74
2022/01/11 11:07:11;;;;;;;16.63;11.77;;;;;;;3.72;100.00;103228.84;5212635;28;20030;-74
2022/01/11 11:09:48;;;;;;;19.88;12.38;;;;;;;3.75;100.00;103228.81;5211789;28;20102;-74
2022/01/11 11:12:23;;;;;;;18.33;12.40;;;;;;;3.79;100.00;103224.38;5212238;28;20104;-73
2022/01/11 11:14:57;;;;;;;19.27;11.55;;;;;;;3.78;100.00;103227.88;5212425;28;20037;-73
2022/01/11 11:17:32;;;;;;;;;;;;;;;4.20;100.00;103225.34;5195357;28;20387;-73
2022/01/11 11:20:09;;;;;;;16.70;11.43;;;;;;;3.90;100.00;103223.34;5211653;28;20286;-74
2022/01/11 11:22:41;;;;;;;21.33;11.70;;;;;;;3.86;100.00;103237.25;5192240;28;20166;-74
2022/01/11 11:25:12;;;;;;;18.65;12.23;;;;;;;3.83;100.00;103245.06;5210480;28;20040;-73
2022/01/11 11:27:43;;;;;;;18.30;11.73;;;;;;;3.89;100.00;103242.34;5191977;28;20034;-73
2022/01/11 11:30:16;;;;;;;20.02;11.73;;;;;;;3.94;100.00;103244.88;5193122;28;20030;-73
2022/01/11 11:32:47;;;;;;;19.35;11.45;;;;;;;3.92;100.00;103231.06;5194227;28;20025;-73
2022/01/11 11:35:20;;;;;;;20.73;12.05;;;;;;;3.97;100.00;103228.38;5211933;28;20037;-73